Latest Weather Observations for Giles*

IDW60801

Issued at 2:35 pm WST Friday 31 October 2014 (issued every 30 minutes, with the page automatically refreshed every 10 minutes)

About weather observations | Map of weather stations | Latest weather observations for WA | Other Formats
Station Details ID: 013017 Name: GILES METEOROLOGICAL OFFICE Lat: -25.03 Lon: 128.30 Height: 598.0 m
Data from the previous 72 hours. | See also: Recent months at Giles*

* Giles observations are collected in the South Australia time zone, which includes daylight saving in the summer period. Therefore, Rain since 9am value is with respect to South Australia local time.

Date/Time
WST
Temp
°C
App
Temp
°C
Dew
Point
Rel
Hum
%
Delta-T
°C
Wind Press
QNH
hPa
Press
MSL
hPa
Rain
since 9 am
mm
Dir
 
Spd
km/h
Gust
km/h
Spd
kts
Gust
kts
31/02:30pm 36.2 30.0 1.9 11 18.1 W 24 33 13 18 1007.8 - 0.0
31/02:00pm 36.6 30.0 2.1 11 18.3 NW 26 41 14 22 1008.2 - 0.0
31/01:30pm 36.0 29.2 3.0 12 17.7 NW 28 41 15 22 1008.7 - 0.0
31/01:00pm 36.0 30.1 3.7 13 17.5 NW 24 41 13 22 1009.3 - 0.0
31/12:30pm 34.2 29.1 6.0 17 15.7 NW 22 28 12 15 1009.9 1006.5 0.0
31/12:00pm 32.5 27.3 9.0 23 13.6 NNW 26 46 14 25 1010.5 - 0.0
31/11:31am 33.6 26.7 6.3 18 15.2 NNW 32 50 17 27 1010.9 - 0.0
31/11:30am 33.6 26.4 6.0 18 15.3 N 33 50 18 27 1010.8 - 0.0
31/11:12am 33.7 27.6 6.8 19 15.1 N 28 46 15 25 1011.1 - 0.0
31/11:00am 34.4 27.3 6.4 17 15.7 NNW 33 43 18 23 1011.3 - 0.0
31/10:57am 34.9 28.1 6.7 17 15.9 NNW 32 41 17 22 1011.3 - 0.0
31/10:30am 34.6 26.7 6.1 17 15.9 N 37 44 20 24 1011.4 - 0.0
31/10:00am 32.9 27.3 8.8 22 13.9 NNW 28 39 15 21 1012.1 - 0.0
31/09:30am 32.9 26.2 8.0 21 14.2 N 33 44 18 24 1012.2 1008.7 0.0
31/09:00am 31.3 25.8 10.6 28 12.2 N 30 37 16 20 1012.4 - 0.0
31/08:30am 29.0 22.6 10.7 32 10.7 N 35 43 19 23 1012.3 - 0.0
31/08:00am 27.9 21.1 10.5 33 10.1 N 37 56 20 30 1012.1 - 0.0
31/07:33am 27.3 20.4 10.3 34 9.8 N 37 56 20 30 1012.2 - 0.0
31/07:30am 27.8 21.0 10.6 34 10.0 N 37 52 20 28 1012.1 - 0.0
31/07:00am 26.0 20.1 11.0 39 8.7 N 33 48 18 26 1012.3 - 0.0
31/06:30am 25.4 19.3 10.6 39 8.5 N 33 48 18 26 1012.7 1009.3 0.0
31/06:00am 25.2 21.9 10.8 40 8.3 NE 19 41 10 22 1011.3 - 0.0
31/05:40am 25.5 20.2 10.0 37 8.8 NNE 28 46 15 25 1011.8 - 0.0
31/05:30am 24.0 22.4 11.6 45 7.2 ENE 11 13 6 7 1012.2 - 0.0
31/05:00am 23.4 21.5 11.9 48 6.7 E 13 19 7 10 1011.9 - 0.0
31/04:30am 23.3 20.7 12.0 49 6.6 ESE 17 20 9 11 1011.3 - 0.0
31/04:00am 25.2 22.1 10.3 39 8.5 ENE 17 32 9 17 1011.2 - 0.0
31/03:30am 24.8 22.3 10.9 41 8.0 ENE 15 20 8 11 1010.1 1006.7 0.0
31/03:00am 23.6 20.7 12.4 49 6.6 ENE 19 28 10 15 1010.4 - 0.0
31/02:30am 26.4 21.6 8.7 32 9.9 N 24 33 13 18 1011.9 - 0.0
31/02:00am 27.3 22.0 7.0 27 11.1 NNE 24 41 13 22 1009.7 - 0.0
31/01:30am 27.9 22.6 6.9 26 11.5 NNE 24 33 13 18 1009.5 - 0.0
31/01:00am 26.4 21.1 9.7 35 9.5 E 28 39 15 21 1009.2 - 0.0
31/12:30am 27.1 24.5 7.7 29 10.7 N 11 17 6 9 1011.1 1007.7 0.0
31/12:00am 26.1 22.7 9.0 34 9.6 NNE 17 22 9 12 1010.6 - 0.0
 
Date/Time
WST
Temp
°C
App
Temp
°C
Dew
Point
Rel
Hum
%
Delta-T
°C
Wind Press
QNH
hPa
Press
MSL
hPa
Rain
since 9 am
mm
Dir
 
Spd
km/h
Gust
km/h
Spd
kts
Gust
kts
30/11:30pm 25.8 22.1 9.5 35 9.2 NE 19 26 10 14 1010.8 - 0.0
30/11:00pm 25.9 22.1 9.2 34 9.4 E 19 24 10 13 1011.6 - 0.0
30/10:30pm 26.2 22.7 8.9 33 9.7 E 17 22 9 12 1012.3 - 0.0
30/10:00pm 27.1 22.0 7.7 29 10.7 SE 24 35 13 19 1012.2 - 0.0
30/09:30pm 27.9 22.5 2.7 19 12.8 SSE 20 30 11 16 1012.6 1009.2 0.0
30/09:15pm 26.9 19.9 1.7 19 12.5 SSE 28 35 15 19 1012.4 - 0.0
30/09:00pm 27.0 24.1 4.6 23 11.7 N 9 13 5 7 1011.8 - 0.0
30/08:30pm 26.9 25.6 4.1 23 11.8 CALM 0 0 0 0 1011.7 - 0.0
30/08:00pm 27.7 25.6 3.7 21 12.4 NW 4 9 2 5 1011.5 - 0.0
30/07:30pm 28.1 25.4 2.8 19 12.9 NE 6 11 3 6 1011.3 - 0.0
30/07:00pm 29.2 25.8 1.6 17 13.9 N 9 13 5 7 1011.0 - 0.0
30/06:30pm 29.7 25.1 1.6 16 14.2 NNE 15 19 8 10 1010.5 1007.0 0.0
30/06:00pm 30.5 25.6 1.9 16 14.6 NE 17 24 9 13 1010.5 - 0.0
30/05:30pm 30.8 27.1 2.5 16 14.6 NE 11 15 6 8 1010.8 - 0.0
30/05:00pm 31.5 26.5 1.5 14 15.3 N 17 30 9 16 1010.6 - 0.0
30/04:30pm 32.8 25.8 -0.2 12 16.5 N 26 33 14 18 1010.1 - 0.0
30/04:00pm 33.2 26.6 -0.1 12 16.7 N 24 35 13 19 1010.5 - 0.0
30/03:30pm 32.7 26.2 0.4 12 16.3 N 24 35 13 19 1010.5 1007.0 0.0
30/03:00pm 32.9 26.0 0.0 12 16.5 N 26 35 14 19 1010.6 - 0.0
30/02:30pm 32.8 24.8 0.6 13 16.3 NNE 32 41 17 22 1010.8 - 0.0
30/02:00pm 34.6 26.6 0.2 11 17.5 NNE 32 44 17 24 1011.0 - 0.0
30/01:30pm 34.8 27.5 -0.2 11 17.7 NNE 28 35 15 19 1011.3 - 0.0
30/01:00pm 34.5 28.0 0.3 11 17.4 NNE 24 33 13 18 1011.5 - 0.0
30/12:30pm 33.7 28.1 1.2 12 16.7 NE 20 35 11 19 1012.1 1008.6 0.0
30/12:00pm 33.3 27.7 1.0 13 16.5 NE 20 33 11 18 1012.4 - 0.0
30/11:30am 34.2 27.7 0.3 11 17.2 NNE 24 39 13 21 1012.8 - 0.0
30/11:00am 33.1 25.9 0.9 13 16.4 ENE 28 41 15 22 1013.1 - 0.0
30/10:30am 32.4 24.4 1.6 14 15.8 ENE 33 44 18 24 1013.7 - 0.0
30/10:00am 30.9 23.6 4.7 19 14.0 E 32 44 17 24 1014.6 - 0.0
30/09:30am 29.2 23.3 7.3 25 12.1 E 28 37 15 20 1015.3 1011.9 0.0
30/09:00am 28.4 23.3 7.6 27 11.5 ESE 24 35 13 19 1016.2 - 0.0
30/08:30am 28.0 22.5 7.5 27 11.3 E 26 37 14 20 1016.4 - 0.0
30/08:00am 27.8 21.6 7.7 28 11.1 SE 30 41 16 22 1017.0 - 0.0
30/07:30am 27.4 21.3 8.1 29 10.7 SE 30 41 16 22 1017.1 - 0.0
30/07:00am 25.6 21.1 8.7 34 9.4 SSE 22 32 12 17 1017.5 - 0.0
30/06:30am 25.1 22.2 9.7 37 8.7 ESE 15 20 8 11 1017.0 1013.7 0.0
30/06:00am 24.4 22.9 10.5 41 7.9 ENE 9 15 5 8 1016.8 - 0.0
30/05:30am 24.6 20.9 9.4 38 8.5 ESE 19 26 10 14 1015.5 - 0.0
30/05:00am 26.2 22.4 5.9 27 10.8 ESE 15 20 8 11 1016.0 - 0.0
30/04:30am 26.3 22.0 5.1 25 11.1 E 17 24 9 13 1015.7 - 0.0
30/04:00am 25.9 21.8 6.2 28 10.5 SE 17 22 9 12 1015.4 - 0.0
30/03:30am 27.1 23.9 2.8 21 12.3 SSE 9 11 5 6 1015.0 1011.6 0.0
30/03:00am 27.4 22.0 1.3 18 12.9 ESE 19 26 10 14 1013.9 - 0.0
30/02:30am 27.6 21.7 1.4 18 13.0 ESE 22 30 12 16 1013.9 - 0.0
30/02:00am 27.8 21.4 1.0 17 13.2 ESE 24 33 13 18 1013.9 - 0.0
30/01:30am 28.0 22.4 1.5 18 13.2 ESE 20 26 11 14 1013.9 - 0.0
30/01:00am 28.2 22.2 0.8 17 13.5 ESE 22 28 12 15 1014.0 - 0.0
30/12:30am 28.2 21.7 0.4 16 13.6 SE 24 33 13 18 1013.9 1010.4 0.0
30/12:00am 28.7 21.6 -0.9 14 14.2 SSE 26 35 14 19 1014.4 - 0.0
 
Date/Time
WST
Temp
°C
App
Temp
°C
Dew
Point
Rel
Hum
%
Delta-T
°C
Wind Press
QNH
hPa
Press
MSL
hPa
Rain
since 9 am
mm
Dir
 
Spd
km/h
Gust
km/h
Spd
kts
Gust
kts
29/11:30pm 29.5 24.3 -0.2 14 14.5 S 17 20 9 11 1015.3 - 0.0
29/11:00pm 29.9 24.1 -0.1 14 14.7 ESE 20 30 11 16 1014.8 - 0.0
29/10:30pm 30.0 23.7 1.4 16 14.4 SE 24 32 13 17 1014.5 - 0.0
29/10:00pm 30.1 25.0 3.1 18 14.0 ESE 19 24 10 13 1014.9 - 0.0
29/09:30pm 30.2 24.6 3.3 18 14.0 ESE 22 30 12 16 1015.0 1011.6 0.0
29/09:00pm 30.1 22.6 3.4 18 13.9 SE 32 43 17 23 1015.2 - 0.0
29/08:44pm 30.2 23.1 3.3 18 14.0 SE 30 48 16 26 1015.3 - 0.0
29/08:30pm 30.9 25.7 3.7 18 14.3 ESE 20 30 11 16 1015.5 - 0.0
29/08:00pm 31.2 24.5 3.6 17 14.5 ESE 28 39 15 21 1015.7 - 0.0
29/07:49pm 31.4 24.6 3.0 16 14.8 SE 28 43 15 23 1015.8 - 0.0
29/07:30pm 31.0 27.5 3.6 17 14.4 ESE 11 15 6 8 1016.0 - 0.0
29/07:00pm 31.8 27.7 2.4 15 15.2 SW 13 19 7 10 1016.8 - 0.0
29/06:37pm 32.1 23.6 1.2 14 15.7 SSW 35 46 19 25 1016.4 - 0.0
29/06:30pm 32.0 27.1 1.7 14 15.5 SSW 17 24 9 13 1016.2 1012.8 0.0
29/06:00pm 33.2 29.0 1.5 13 16.3 WSW 13 20 7 11 1015.4 - 0.0
29/05:30pm 33.7 28.9 0.3 12 16.9 WSW 15 20 8 11 1014.9 - 0.0
29/05:00pm 34.2 29.4 -0.1 11 17.3 WSW 15 24 8 13 1014.7 - 0.0
29/04:30pm 34.8 29.5 -0.3 11 17.7 W 17 20 9 11 1014.5 - 0.0
29/04:00pm 35.0 30.1 -0.6 10 17.9 WNW 15 20 8 11 1014.3 - 0.0
29/03:30pm 35.5 30.6 -0.6 10 18.2 NW 15 24 8 13 1014.0 1010.6 0.0
29/03:00pm 35.7 30.0 -1.0 9 18.4 NW 19 30 10 16 1014.0 - 0.0
29/02:30pm 35.8 30.1 -1.1 9 18.5 NW 19 28 10 15 1014.0 - 0.0
29/02:00pm 36.0 30.1 -0.6 10 18.5 NW 20 30 11 16 1014.1 - 0.0
29/01:30pm 36.2 30.3 -0.9 9 18.7 NNW 20 30 11 16 1014.2 - 0.0
29/01:00pm 35.4 29.1 -0.9 10 18.2 NW 22 33 12 18 1014.5 - 0.0
29/12:30pm 36.9 30.9 -1.3 9 19.2 NNW 20 30 11 16 1014.8 1011.4 0.0
29/12:00pm 37.1 31.5 -0.2 9 19.1 N 19 28 10 15 1015.0 - 0.0
29/11:30am 35.5 30.1 1.1 11 17.8 N 19 32 10 17 1015.5 - 0.0
29/11:00am 35.7 28.7 -0.5 10 18.3 NNW 26 35 14 19 1015.9 - 0.0
29/10:30am 35.4 28.5 0.0 10 18.0 N 26 41 14 22 1016.2 - 0.0
29/10:00am 35.6 28.4 0.5 11 18.0 N 28 39 15 21 1016.5 - 0.0
29/09:50am 34.4 27.3 1.2 12 17.1 N 28 46 15 25 1016.6 - 0.0
29/09:30am 33.9 26.7 0.7 12 16.9 N 28 39 15 21 1016.7 1013.3 0.0
29/09:00am 32.6 25.5 1.2 13 16.0 N 28 39 15 21 1017.0 - 0.0
29/08:30am 31.8 24.4 1.6 14 15.4 N 30 43 16 23 1017.0 - 0.0
29/08:00am 31.3 26.2 3.1 16 14.7 NE 19 28 10 15 1017.1 - 0.0
29/07:30am 31.0 26.7 3.2 17 14.5 NE 15 20 8 11 1017.1 - 0.0
29/07:00am 30.1 26.1 2.7 17 14.1 ENE 13 20 7 11 1016.8 - 0.0
29/06:30am 28.4 24.4 3.0 19 13.0 E 13 17 7 9 1017.0 1013.7 Trace
29/06:00am 27.5 23.6 3.2 21 12.4 NE 13 19 7 10 1016.7 - -
29/05:30am 26.0 21.5 2.3 21 11.8 E 15 17 8 9 1016.6 - -
29/05:00am 25.9 20.4 2.1 21 11.8 E 20 24 11 13 1016.4 - -
29/04:30am 25.2 21.1 2.4 22 11.3 ESE 13 17 7 9 1016.2 - -
29/04:00am 25.1 21.0 2.2 22 11.3 ESE 13 17 7 9 1016.0 - -
29/03:30am 24.6 22.4 5.5 29 10.0 ESE 6 9 3 5 1015.7 1012.3 -
29/03:00am 25.4 21.7 2.2 22 11.5 ESE 11 15 6 8 1015.4 - -
29/02:30am 26.7 23.0 2.3 20 12.2 E 11 15 6 8 1015.3 - -
29/02:00am 26.1 22.9 3.2 22 11.6 E 9 13 5 7 1015.3 - -
29/01:30am 27.3 23.4 3.2 21 12.3 ENE 13 17 7 9 1015.1 - -
29/01:00am 27.9 24.0 3.4 20 12.6 NE 13 15 7 8 1015.1 - -
29/12:30am 27.5 23.3 3.6 21 12.3 E 15 20 8 11 1015.3 1011.9 Trace
29/12:00am 26.9 24.3 4.1 23 11.8 E 7 11 4 6 1015.4 - -
 
Date/Time
WST
Temp
°C
App
Temp
°C
Dew
Point
Rel
Hum
%
Delta-T
°C
Wind Press
QNH
hPa
Press
MSL
hPa
Rain
since 9 am
mm
Dir
 
Spd
km/h
Gust
km/h
Spd
kts
Gust
kts
28/11:30pm 26.1 24.0 3.8 23 11.4 E 4 7 2 4 1015.5 - -
28/11:00pm 28.1 24.7 4.1 21 12.5 NNE 11 15 6 8 1015.8 - -
28/10:30pm 28.4 25.8 4.3 21 12.6 NE 7 9 4 5 1015.9 - -
28/10:00pm 28.2 25.6 4.0 21 12.6 ESE 7 11 4 6 1016.2 - -
28/09:30pm 29.4 26.5 4.7 21 13.1 NNE 9 11 5 6 1016.3 1012.9 -
28/09:00pm 30.0 26.6 4.2 19 13.6 NNE 11 17 6 9 1016.4 - -
28/08:30pm 30.4 25.7 3.3 18 14.1 NNE 17 22 9 12 1016.3 - 0.0
28/08:00pm 29.9 24.8 4.3 19 13.5 NNE 20 30 11 16 1016.3 - 0.0
28/07:30pm 29.9 24.5 4.7 20 13.4 NNE 22 32 12 17 1016.1 - 0.0
28/07:00pm 30.9 25.5 2.3 16 14.7 NNW 20 24 11 13 1015.9 - 0.0
28/06:30pm 31.5 27.6 3.2 16 14.8 W 13 19 7 10 1015.8 1012.4 0.0
28/06:19pm 31.9 22.7 1.1 14 15.6 W 39 59 21 32 1015.8 - 0.0
28/06:15pm 31.5 24.2 2.5 16 15.0 NNW 30 48 16 26 1015.9 - 0.0
28/06:13pm 31.9 22.7 1.5 14 15.5 WNW 39 54 21 29 1015.7 - 0.0
28/06:00pm 31.4 25.3 3.0 16 14.8 N 24 48 13 26 1015.4 - 0.0
28/05:40pm 32.9 24.1 -1.0 11 16.7 SW 35 54 19 29 1015.0 - -
28/05:38pm 33.4 22.9 -2.4 10 17.3 SW 43 54 23 29 1014.7 - -
28/05:30pm 33.8 28.4 -1.7 10 17.4 SSE 17 28 9 15 1014.5 - -
28/05:00pm 33.9 29.7 -1.0 11 17.3 WNW 11 17 6 9 1014.4 - -
28/04:52pm 33.6 25.3 -1.4 10 17.2 W 32 41 17 22 1014.3 - -
28/04:30pm 34.6 31.5 1.4 12 17.2 NW 7 11 4 6 1014.0 - -
28/04:00pm 34.8 29.9 -0.7 10 17.8 NNW 15 20 8 11 1013.9 - -
28/03:30pm 35.4 32.0 -0.4 10 18.1 NNW 7 13 4 7 1013.9 1010.4 -
28/03:00pm 35.6 30.7 -0.3 10 18.2 N 15 28 8 15 1014.0 - -
28/02:30pm 35.1 31.3 -0.8 10 18.0 NNW 9 19 5 10 1014.2 - -
28/02:00pm 35.8 31.7 -0.2 10 18.3 NW 11 20 6 11 1014.6 - -
28/01:30pm 35.5 31.3 -0.6 10 18.2 NW 11 22 6 12 1014.8 - -
28/01:00pm 35.8 29.4 -1.7 9 18.6 NW 22 33 12 18 1015.3 - -
28/12:30pm 34.7 30.0 1.2 12 17.3 N 15 22 8 12 1015.5 1012.2 0.0

Other Formats:

Comma delimited format used in spreadsheet applications
http://www.bom.gov.au/fwo/IDW60801/IDW60801.94461.axf

JavaScript Object Notation format (JSON) in row-major order
http://www.bom.gov.au/fwo/IDW60801/IDW60801.94461.json